createdAt,value
2022-09-28T00:01:13.753Z,258.67
2022-09-28T00:03:40.379Z,258.00
2022-09-28T00:06:10.081Z,262.23
2022-09-28T00:08:37.373Z,262.23
2022-09-28T00:11:06.507Z,257.23
2022-09-28T00:13:34.105Z,259.73
2022-09-28T00:16:10.617Z,250.55
2022-09-28T00:18:37.531Z,252.37
2022-09-28T00:21:12.285Z,259.33
2022-09-28T00:23:59.996Z,250.35
2022-09-28T00:26:28.083Z,261.27
2022-09-28T00:28:56.879Z,249.80
2022-09-28T00:31:25.065Z,251.30
2022-09-28T00:33:53.295Z,260.17
2022-09-28T00:36:19.892Z,258.30
2022-09-28T00:38:46.549Z,256.52
2022-09-28T00:41:14.123Z,254.27
2022-09-28T00:43:41.373Z,255.33
2022-09-28T00:46:15.316Z,256.17
2022-09-28T00:48:54.813Z,260.13
2022-09-28T00:51:22.715Z,259.85
2022-09-28T00:53:51.213Z,254.43
2022-09-28T00:56:21.684Z,260.90
2022-09-28T00:58:52.973Z,263.50
2022-09-28T01:01:19.521Z,256.20
2022-09-28T01:03:48.800Z,257.65
2022-09-28T01:06:20.586Z,265.48
2022-09-28T01:08:50.826Z,261.42
2022-09-28T01:11:19.613Z,259.23
2022-09-28T01:13:50.053Z,263.23
2022-09-28T01:16:33.818Z,267.60
2022-09-28T01:19:34.474Z,256.40
2022-09-28T01:22:26.395Z,257.40
2022-09-28T01:25:20.969Z,262.58
2022-09-28T01:27:54.881Z,264.08
2022-09-28T01:30:22.245Z,257.75
2022-09-28T01:32:56.000Z,263.00
2022-09-28T01:35:44.388Z,262.15
2022-09-28T01:38:26.778Z,258.73
2022-09-28T01:40:55.731Z,255.85
2022-09-28T01:43:30.368Z,256.85
2022-09-28T01:46:05.048Z,254.95
2022-09-28T01:48:51.441Z,254.25
2022-09-28T01:51:42.438Z,266.85
2022-09-28T01:54:28.222Z,261.48
2022-09-28T01:57:00.591Z,254.60
2022-09-28T01:59:30.827Z,265.08
2022-09-28T02:02:18.768Z,262.20
2022-09-28T02:04:55.702Z,259.20
2022-09-28T02:07:42.459Z,260.27
2022-09-28T02:10:22.094Z,267.58
2022-09-28T02:12:59.513Z,269.77
2022-09-28T02:16:01.401Z,265.70
2022-09-28T02:18:29.471Z,268.83
2022-09-28T02:21:07.050Z,275.33
2022-09-28T02:23:37.362Z,271.33
2022-09-28T02:26:10.313Z,266.05
2022-09-28T02:28:37.284Z,263.08
2022-09-28T02:31:07.320Z,261.48
2022-09-28T02:33:41.286Z,260.85
2022-09-28T02:36:08.547Z,253.95
2022-09-28T02:38:38.195Z,257.63
2022-09-28T02:41:31.722Z,259.15
2022-09-28T02:44:26.567Z,259.85
2022-09-28T02:47:08.716Z,260.63
2022-09-28T02:49:49.498Z,262.67
2022-09-28T02:52:31.358Z,267.98
2022-09-28T02:55:07.278Z,265.90
2022-09-28T02:57:45.925Z,271.38
2022-09-28T03:00:20.138Z,275.10
2022-09-28T03:03:22.172Z,280.17
2022-09-28T03:06:03.909Z,277.95
2022-09-28T03:08:54.917Z,276.47
2022-09-28T03:11:37.752Z,270.77
2022-09-28T03:14:05.545Z,270.75
2022-09-28T03:16:46.542Z,273.48
2022-09-28T03:19:14.022Z,268.75
2022-09-28T03:21:41.513Z,270.40
2022-09-28T03:24:11.161Z,273.95
2022-09-28T03:26:41.191Z,276.40
2022-09-28T03:29:08.359Z,277.77
2022-09-28T03:31:37.986Z,271.92
2022-09-28T03:34:04.724Z,266.65
2022-09-28T03:36:32.092Z,272.67
2022-09-28T03:38:59.659Z,266.92
2022-09-28T03:41:30.141Z,270.30
2022-09-28T03:43:57.036Z,270.50
2022-09-28T03:46:26.592Z,271.58
2022-09-28T03:48:58.471Z,269.85
2022-09-28T03:51:27.784Z,269.10
2022-09-28T03:53:54.889Z,276.30
2022-09-28T03:56:21.844Z,267.98
2022-09-28T03:58:48.907Z,264.80
2022-09-28T04:01:17.532Z,269.10
2022-09-28T04:03:47.176Z,254.57
2022-09-28T04:06:14.842Z,259.80
2022-09-28T04:08:43.663Z,253.18
2022-09-28T04:11:11.362Z,259.95
2022-09-28T04:13:38.307Z,257.20
2022-09-28T04:16:08.041Z,252.70
2022-09-28T04:18:36.161Z,250.00
2022-09-28T04:21:19.454Z,251.82
2022-09-28T04:23:53.440Z,242.30
2022-09-28T04:26:24.415Z,246.73
2022-09-28T04:29:10.290Z,246.90
2022-09-28T04:31:56.470Z,249.40
2022-09-28T04:34:37.138Z,249.13
2022-09-28T04:37:05.509Z,241.80
2022-09-28T04:39:32.206Z,248.40
2022-09-28T04:42:01.301Z,243.52
2022-09-28T04:44:28.694Z,241.73
2022-09-28T04:47:04.201Z,239.18
2022-09-28T04:49:33.754Z,234.07
2022-09-28T04:52:12.557Z,223.23
2022-09-28T04:54:43.356Z,219.00
2022-09-28T04:57:11.612Z,221.77
2022-09-28T04:59:39.641Z,222.10
2022-09-28T05:02:07.047Z,221.52
2022-09-28T05:05:09.439Z,229.55
2022-09-28T05:07:58.707Z,228.68
2022-09-28T05:10:25.369Z,228.17
2022-09-28T05:12:53.113Z,255.63
2022-09-28T05:15:19.793Z,229.85
2022-09-28T05:17:47.725Z,234.82
2022-09-28T05:20:39.613Z,233.20
2022-09-28T05:23:08.395Z,233.15
2022-09-28T05:25:36.459Z,237.60
2022-09-28T05:28:20.193Z,235.68
2022-09-28T05:31:07.711Z,262.17
2022-09-28T05:33:57.290Z,219.20
2022-09-28T05:36:26.903Z,224.35
2022-09-28T05:38:54.034Z,220.88
2022-09-28T05:41:20.723Z,222.73
2022-09-28T05:43:47.418Z,214.70
2022-09-28T05:46:14.559Z,215.70
2022-09-28T05:48:41.688Z,247.18
2022-09-28T05:51:10.115Z,223.07
2022-09-28T05:53:39.654Z,224.77
2022-09-28T05:56:07.138Z,223.93
2022-09-28T05:58:36.541Z,222.30
2022-09-28T06:01:03.192Z,214.90
2022-09-28T06:03:30.468Z,240.18
2022-09-28T06:05:59.834Z,236.13
2022-09-28T06:08:26.484Z,219.50
2022-09-28T06:11:06.777Z,225.88
2022-09-28T06:13:34.343Z,219.45
2022-09-28T06:16:01.322Z,248.90
2022-09-28T06:18:28.240Z,205.27
2022-09-28T06:21:19.081Z,231.63
2022-09-28T06:23:49.141Z,215.10
2022-09-28T06:26:17.266Z,212.98
2022-09-28T06:28:44.766Z,204.95
2022-09-28T06:31:11.804Z,223.82
2022-09-28T06:33:46.164Z,218.20
2022-09-28T06:36:13.464Z,210.35
2022-09-28T06:38:40.336Z,209.27
2022-09-28T06:41:07.192Z,198.52
2022-09-28T06:43:35.143Z,202.55
2022-09-28T06:46:31.483Z,197.27
2022-09-28T06:49:30.349Z,193.45
2022-09-28T06:52:20.113Z,189.57
2022-09-28T06:55:06.578Z,204.13
2022-09-28T06:57:44.606Z,200.63
2022-09-28T07:00:12.086Z,206.20
2022-09-28T07:02:38.871Z,203.20
2022-09-28T07:05:29.889Z,209.80
2022-09-28T07:08:26.380Z,215.02
2022-09-28T07:11:12.443Z,217.15
2022-09-28T07:13:52.153Z,212.80
2022-09-28T07:16:26.929Z,216.75
2022-09-28T07:18:55.292Z,207.25
2022-09-28T07:21:28.770Z,206.57
2022-09-28T07:23:57.069Z,200.27
2022-09-28T07:26:24.700Z,198.85
2022-09-28T07:29:14.622Z,192.07
2022-09-28T07:32:01.725Z,189.68
2022-09-28T07:35:07.971Z,189.25
2022-09-28T07:37:45.891Z,213.82
2022-09-28T07:40:31.129Z,211.97
2022-09-28T07:43:07.049Z,210.02
2022-09-28T07:45:36.776Z,206.88
2022-09-28T07:48:04.569Z,204.48
2022-09-28T07:50:52.821Z,205.07
2022-09-28T07:53:54.814Z,210.25
2022-09-28T07:56:47.870Z,210.32
2022-09-28T07:59:39.670Z,206.52
2022-09-28T08:02:25.977Z,204.03
2022-09-28T08:04:56.320Z,206.38
2022-09-28T08:07:24.237Z,203.10
2022-09-28T08:09:58.135Z,201.88
2022-09-28T08:12:27.737Z,202.52
2022-09-28T08:15:19.726Z,210.48
2022-09-28T08:17:53.062Z,208.30
2022-09-28T08:20:41.445Z,197.82
2022-09-28T08:23:09.558Z,207.10
2022-09-28T08:25:53.988Z,204.70
2022-09-28T08:28:23.216Z,198.75
2022-09-28T08:30:54.489Z,202.05
2022-09-28T08:33:45.082Z,191.25
2022-09-28T08:36:30.473Z,198.85
2022-09-28T08:39:15.618Z,230.32
2022-09-28T08:42:28.205Z,205.82
2022-09-28T08:45:26.382Z,205.45
2022-09-28T08:48:52.216Z,200.73
2022-09-28T08:52:04.639Z,209.00
2022-09-28T08:54:51.769Z,208.15
2022-09-28T08:57:39.437Z,207.48
2022-09-28T09:00:10.994Z,194.67
2022-09-28T09:02:39.913Z,209.00
2022-09-28T09:05:21.215Z,191.85
2022-09-28T09:08:07.765Z,195.50
2022-09-28T09:10:54.954Z,207.75
2022-09-28T09:14:03.027Z,195.18
2022-09-28T09:16:42.318Z,190.50
2022-09-28T09:19:50.580Z,186.63
2022-09-28T09:22:41.314Z,184.40
2022-09-28T09:25:29.068Z,176.02
2022-09-28T09:28:23.676Z,167.25
2022-09-28T09:30:56.897Z,174.83
2022-09-28T09:33:46.202Z,173.82
2022-09-28T09:37:11.307Z,164.33
2022-09-28T09:40:42.907Z,177.93
2022-09-28T09:44:05.587Z,184.55
2022-09-28T09:47:15.341Z,185.20
2022-09-28T09:50:05.527Z,165.37
2022-09-28T09:52:57.461Z,153.75
2022-09-28T09:55:31.015Z,164.35
2022-09-28T09:58:54.120Z,162.93
2022-09-28T10:01:50.412Z,147.30
2022-09-28T10:05:00.356Z,185.67
2022-09-28T10:08:10.568Z,154.88
2022-09-28T10:10:52.284Z,140.45
2022-09-28T10:13:21.563Z,138.63
2022-09-28T10:15:54.451Z,145.60
2022-09-28T10:21:31.987Z,140.10
2022-09-28T10:27:59.788Z,145.63
2022-09-28T10:33:59.095Z,152.88
2022-09-28T10:36:26.335Z,169.15
2022-09-28T10:38:54.506Z,162.47
2022-09-28T10:41:32.325Z,167.73
2022-09-28T10:44:11.369Z,144.73
2022-09-28T10:47:09.962Z,154.40
2022-09-28T10:49:46.858Z,162.30
2022-09-28T10:52:40.386Z,154.10
2022-09-28T10:55:32.414Z,176.20
2022-09-28T10:58:17.372Z,155.43
2022-09-28T11:00:45.186Z,155.07
2022-09-28T11:03:29.184Z,163.98
2022-09-28T11:06:08.633Z,158.73
2022-09-28T11:08:42.116Z,157.73
2022-09-28T11:11:19.468Z,171.48
2022-09-28T11:14:01.266Z,166.82
2022-09-28T11:16:37.700Z,161.18
2022-09-28T11:19:21.196Z,163.90
2022-09-28T11:24:37.941Z,145.98
2022-09-28T11:27:05.508Z,153.17
2022-09-28T11:29:38.909Z,155.65
2022-09-28T11:32:44.771Z,147.80
2022-09-28T11:35:46.394Z,164.32
2022-09-28T11:44:08.160Z,144.07
2022-09-28T12:05:37.161Z,149.10
2022-09-28T12:08:12.083Z,145.45
2022-09-28T12:11:12.781Z,158.30
2022-09-28T12:14:21.671Z,168.70
2022-09-28T12:17:07.942Z,170.07
2022-09-28T12:19:49.475Z,143.53
2022-09-28T12:22:59.429Z,149.52
2022-09-28T13:34:50.917Z,159.60
2022-09-28T13:37:26.456Z,169.45
2022-09-28T13:39:59.642Z,162.88
2022-09-28T13:48:17.539Z,151.18
2022-09-28T13:51:10.805Z,162.93
2022-09-28T13:54:08.061Z,171.15
2022-09-28T14:05:23.071Z,176.10
2022-09-28T14:08:08.625Z,162.23
2022-09-28T14:11:25.013Z,174.27
2022-09-28T14:14:05.775Z,162.02
2022-09-28T14:57:08.473Z,183.32
2022-09-28T14:59:46.137Z,175.18
2022-09-28T15:02:20.197Z,175.83
2022-09-28T15:05:02.475Z,161.52
2022-09-28T15:07:34.507Z,168.90
2022-09-28T15:10:02.647Z,169.18
2022-09-28T15:12:31.167Z,187.20
2022-09-28T15:18:05.265Z,160.85
2022-09-28T15:20:44.866Z,158.77
2022-09-28T15:23:27.330Z,163.57
2022-09-28T15:25:56.135Z,189.05
2022-09-28T15:28:33.794Z,169.93
2022-09-28T15:31:03.452Z,159.80
2022-09-28T15:33:52.071Z,167.15
2022-09-28T15:36:24.522Z,163.87
2022-09-28T15:38:59.693Z,160.32
2022-09-28T15:41:30.003Z,157.83
2022-09-28T15:47:31.456Z,182.88
2022-09-28T15:50:05.392Z,167.47
2022-09-28T15:55:33.114Z,156.35
2022-09-28T15:58:19.643Z,184.80
2022-09-28T16:00:52.270Z,195.30
2022-09-28T16:03:29.328Z,185.82
2022-09-28T16:05:59.026Z,179.07
2022-09-28T16:08:45.273Z,198.93
2022-09-28T16:11:20.353Z,189.20
2022-09-28T16:14:06.178Z,201.48
2022-09-28T16:16:50.747Z,239.35
2022-09-28T16:19:40.495Z,192.43
2022-09-28T16:22:14.030Z,160.23
2022-09-28T16:24:42.703Z,173.00
2022-09-28T16:27:30.505Z,191.68
2022-09-28T16:30:04.738Z,192.82
2022-09-28T16:32:38.520Z,218.10
2022-09-28T16:35:11.224Z,197.07
2022-09-28T16:37:40.878Z,203.93
2022-09-28T16:40:08.886Z,198.85
2022-09-28T16:42:36.703Z,199.65
2022-09-28T16:45:05.245Z,200.30
2022-09-28T16:47:34.164Z,201.60
2022-09-28T16:50:03.958Z,204.25
2022-09-28T16:52:49.310Z,197.32
2022-09-28T16:55:36.226Z,207.40
2022-09-28T16:58:04.642Z,181.18
2022-09-28T17:00:31.840Z,172.60
2022-09-28T17:02:59.200Z,187.67
2022-09-28T17:05:26.317Z,203.50
2022-09-28T17:08:04.186Z,195.18
2022-09-28T17:11:09.382Z,206.25
2022-09-28T17:13:35.971Z,231.80
2022-09-28T17:16:18.763Z,227.98
2022-09-28T17:18:46.039Z,251.23
2022-09-28T17:21:18.810Z,233.63
2022-09-28T17:23:47.454Z,242.88
2022-09-28T17:26:29.253Z,253.53
2022-09-28T17:28:55.769Z,252.43
2022-09-28T17:31:22.749Z,247.25
2022-09-28T17:33:50.065Z,274.23
2022-09-28T17:36:19.742Z,255.35
2022-09-28T17:38:51.803Z,258.35
2022-09-28T17:41:20.802Z,266.80
2022-09-28T17:43:48.349Z,268.17
2022-09-28T17:46:37.005Z,248.68
2022-09-28T17:49:06.209Z,244.17
2022-09-28T17:51:39.131Z,245.32
2022-09-28T17:54:07.973Z,242.57
2022-09-28T17:56:35.808Z,257.77
2022-09-28T17:59:06.092Z,246.50
2022-09-28T18:01:34.479Z,235.20
2022-09-28T18:04:03.049Z,222.30
2022-09-28T18:06:29.837Z,233.48
2022-09-28T18:08:56.425Z,208.82
2022-09-28T18:11:23.365Z,209.55
2022-09-28T18:13:50.052Z,211.57
2022-09-28T18:16:17.198Z,220.30
2022-09-28T18:18:43.826Z,215.65
2022-09-28T18:21:10.509Z,222.85
2022-09-28T18:23:38.324Z,226.32
2022-09-28T18:26:13.069Z,220.70
2022-09-28T18:28:40.210Z,218.45
2022-09-28T18:31:12.162Z,212.50
2022-09-28T18:33:39.610Z,208.85
2022-09-28T18:36:07.348Z,218.55
2022-09-28T18:38:38.159Z,234.60
2022-09-28T18:43:49.014Z,241.55
2022-09-28T18:46:17.627Z,244.48
2022-09-28T18:48:44.597Z,225.25
2022-09-28T18:51:12.406Z,247.48
2022-09-28T18:53:40.039Z,218.77
2022-09-28T18:56:12.025Z,214.23
2022-09-28T18:58:40.178Z,227.30
2022-09-28T19:01:28.827Z,226.90
2022-09-28T19:03:55.932Z,224.95
2022-09-28T19:06:22.463Z,227.87
2022-09-28T19:08:55.481Z,233.50
2022-09-28T19:11:23.243Z,229.40
2022-09-28T19:13:50.377Z,230.80
2022-09-28T19:16:20.827Z,224.70
2022-09-28T19:18:48.172Z,220.30
2022-09-28T19:21:15.181Z,208.23
2022-09-28T19:23:49.037Z,213.10
2022-09-28T19:26:20.375Z,213.63
2022-09-28T19:28:47.573Z,206.77
2022-09-28T19:31:14.205Z,221.57
2022-09-28T19:33:41.744Z,220.27
2022-09-28T19:36:11.127Z,221.23
2022-09-28T19:38:39.211Z,224.73
2022-09-28T19:41:37.791Z,232.65
2022-09-28T19:44:13.050Z,228.32
2022-09-28T19:46:40.709Z,218.15
2022-09-28T19:49:10.514Z,235.70
2022-09-28T19:51:46.951Z,215.85
2022-09-28T19:54:30.995Z,220.70
2022-09-28T19:56:59.866Z,276.67
2022-09-28T19:59:26.452Z,263.38
2022-09-28T20:01:56.230Z,283.33
2022-09-28T20:04:23.209Z,257.73
2022-09-28T20:06:52.790Z,255.82
2022-09-28T20:09:19.650Z,290.97
2022-09-28T20:11:46.741Z,288.35
2022-09-28T20:14:18.567Z,320.48
2022-09-28T20:16:48.465Z,279.50
2022-09-28T20:19:15.441Z,265.27
2022-09-28T20:21:42.044Z,278.48
2022-09-28T20:24:11.229Z,279.25
2022-09-28T20:26:37.990Z,313.23
2022-09-28T20:29:06.646Z,306.63
2022-09-28T20:31:40.126Z,304.77
2022-09-28T20:34:07.139Z,295.92
2022-09-28T20:36:34.185Z,295.23
2022-09-28T20:39:01.993Z,301.10
2022-09-28T20:41:35.653Z,306.17
2022-09-28T20:44:05.788Z,315.05
2022-09-28T20:46:36.550Z,298.48
2022-09-28T20:49:04.209Z,275.42
2022-09-28T20:51:31.018Z,270.88
2022-09-28T20:53:59.023Z,262.08
2022-09-28T20:56:38.709Z,267.38
2022-09-28T20:59:08.431Z,260.00
2022-09-28T21:01:35.393Z,270.88
2022-09-28T21:04:04.583Z,256.00
2022-09-28T21:06:34.311Z,259.63
2022-09-28T21:09:01.230Z,261.10
2022-09-28T21:11:29.638Z,264.80
2022-09-28T21:14:02.157Z,275.48
2022-09-28T21:16:31.248Z,285.15
2022-09-28T21:18:58.228Z,295.40
2022-09-28T21:21:26.121Z,297.77
2022-09-28T21:23:55.312Z,295.50
2022-09-28T21:26:25.057Z,286.27
2022-09-28T21:29:03.577Z,293.65
2022-09-28T21:31:38.492Z,290.38
2022-09-28T21:34:05.635Z,290.83
2022-09-28T21:36:32.336Z,300.70
2022-09-28T21:38:58.927Z,303.70
2022-09-28T21:41:25.753Z,304.75
2022-09-28T21:43:52.585Z,298.48
2022-09-28T21:46:19.377Z,286.92
2022-09-28T21:48:46.043Z,305.98
2022-09-28T21:51:19.252Z,308.27
2022-09-28T21:53:45.848Z,297.52
2022-09-28T21:56:13.035Z,322.83
2022-09-28T21:58:42.087Z,322.30
2022-09-28T22:01:20.534Z,334.67
2022-09-28T22:03:50.431Z,318.83
2022-09-28T22:06:18.954Z,300.70
2022-09-28T22:08:46.882Z,306.83
2022-09-28T22:11:18.887Z,294.73
2022-09-28T22:13:49.998Z,293.80
2022-09-28T22:16:18.775Z,292.05
2022-09-28T22:18:46.071Z,288.80
2022-09-28T22:21:15.537Z,279.75
2022-09-28T22:23:42.536Z,304.05
2022-09-28T22:26:28.482Z,318.45
2022-09-28T22:28:59.712Z,333.48
2022-09-28T22:31:29.395Z,310.65
2022-09-28T22:33:56.478Z,332.77
2022-09-28T22:36:23.858Z,319.15
2022-09-28T22:38:50.917Z,312.30
2022-09-28T22:41:20.883Z,322.23
2022-09-28T22:43:57.780Z,319.95
2022-09-28T22:46:29.368Z,317.30
2022-09-28T22:48:58.215Z,321.20
2022-09-28T22:51:27.335Z,327.45
2022-09-28T22:53:54.292Z,321.45
2022-09-28T22:56:20.874Z,331.98
2022-09-28T22:58:47.665Z,328.05
2022-09-28T23:01:20.294Z,324.10
2022-09-28T23:03:48.140Z,328.97
2022-09-28T23:06:21.400Z,325.73
2022-09-28T23:08:51.399Z,327.65
2022-09-28T23:11:19.019Z,318.63
2022-09-28T23:13:50.439Z,311.92
2022-09-28T23:16:17.496Z,313.50
2022-09-28T23:18:44.181Z,317.95
2022-09-28T23:21:19.945Z,319.80
2022-09-28T23:23:52.351Z,319.02
2022-09-28T23:26:25.010Z,315.70
2022-09-28T23:28:52.728Z,314.20
2022-09-28T23:31:31.610Z,307.35
2022-09-28T23:34:06.701Z,311.38
2022-09-28T23:36:35.864Z,297.13
2022-09-28T23:39:03.117Z,292.70
2022-09-28T23:41:35.489Z,286.77
2022-09-28T23:44:02.306Z,288.67
2022-09-28T23:46:29.115Z,285.05
2022-09-28T23:48:55.834Z,285.70
2022-09-28T23:51:22.458Z,292.15
2022-09-28T23:53:49.092Z,294.88
2022-09-28T23:56:15.777Z,297.77
2022-09-28T23:58:42.712Z,294.73
